sensor_id;sensor_type;location;lat;lon;timestamp;P1;durP1;ratioP1;P2;durP2;ratioP2
16173;SDS011;14031;50.158;8.626;2023-02-18T00:00:25;2.73;;;2.60;;
16173;SDS011;14031;50.158;8.626;2023-02-18T00:02:53;7.00;;;3.30;;
16173;SDS011;14031;50.158;8.626;2023-02-18T00:05:20;3.53;;;3.27;;
16173;SDS011;14031;50.158;8.626;2023-02-18T00:07:48;2.90;;;2.80;;
16173;SDS011;14031;50.158;8.626;2023-02-18T00:10:14;3.00;;;2.90;;
16173;SDS011;14031;50.158;8.626;2023-02-18T00:12:43;3.70;;;3.50;;
16173;SDS011;14031;50.158;8.626;2023-02-18T00:15:10;3.30;;;3.10;;
16173;SDS011;14031;50.158;8.626;2023-02-18T00:17:37;3.73;;;3.53;;
16173;SDS011;14031;50.158;8.626;2023-02-18T00:20:05;4.43;;;3.90;;
16173;SDS011;14031;50.158;8.626;2023-02-18T00:22:32;3.70;;;3.50;;
16173;SDS011;14031;50.158;8.626;2023-02-18T00:24:59;3.87;;;3.57;;
16173;SDS011;14031;50.158;8.626;2023-02-18T00:27:26;3.27;;;3.07;;
16173;SDS011;14031;50.158;8.626;2023-02-18T00:29:54;2.77;;;2.67;;
16173;SDS011;14031;50.158;8.626;2023-02-18T00:32:21;2.40;;;2.30;;
16173;SDS011;14031;50.158;8.626;2023-02-18T00:34:48;2.50;;;2.40;;
16173;SDS011;14031;50.158;8.626;2023-02-18T00:37:14;2.20;;;2.10;;
16173;SDS011;14031;50.158;8.626;2023-02-18T00:39:41;1.47;;;1.47;;
16173;SDS011;14031;50.158;8.626;2023-02-18T00:42:08;1.50;;;1.40;;
16173;SDS011;14031;50.158;8.626;2023-02-18T00:44:35;1.33;;;1.33;;
16173;SDS011;14031;50.158;8.626;2023-02-18T00:47:03;1.30;;;1.27;;
16173;SDS011;14031;50.158;8.626;2023-02-18T00:49:30;1.37;;;1.33;;
16173;SDS011;14031;50.158;8.626;2023-02-18T00:51:57;1.20;;;1.20;;
16173;SDS011;14031;50.158;8.626;2023-02-18T00:54:24;1.00;;;1.00;;
16173;SDS011;14031;50.158;8.626;2023-02-18T00:56:51;1.43;;;1.40;;
16173;SDS011;14031;50.158;8.626;2023-02-18T00:59:17;1.20;;;1.20;;
16173;SDS011;14031;50.158;8.626;2023-02-18T01:01:44;2.07;;;1.97;;
16173;SDS011;14031;50.158;8.626;2023-02-18T01:04:12;1.87;;;1.77;;
16173;SDS011;14031;50.158;8.626;2023-02-18T01:06:39;1.73;;;1.67;;
16173;SDS011;14031;50.158;8.626;2023-02-18T01:09:06;2.30;;;2.10;;
16173;SDS011;14031;50.158;8.626;2023-02-18T01:11:33;2.60;;;1.73;;
16173;SDS011;14031;50.158;8.626;2023-02-18T01:13:59;1.83;;;1.73;;
16173;SDS011;14031;50.158;8.626;2023-02-18T01:16:26;1.43;;;1.30;;
16173;SDS011;14031;50.158;8.626;2023-02-18T01:18:53;1.30;;;1.30;;
16173;SDS011;14031;50.158;8.626;2023-02-18T01:21:21;1.90;;;1.80;;
16173;SDS011;14031;50.158;8.626;2023-02-18T01:23:48;1.20;;;1.20;;
16173;SDS011;14031;50.158;8.626;2023-02-18T01:26:15;1.90;;;1.80;;
16173;SDS011;14031;50.158;8.626;2023-02-18T01:28:42;1.90;;;1.70;;
16173;SDS011;14031;50.158;8.626;2023-02-18T01:31:10;2.10;;;2.00;;
16173;SDS011;14031;50.158;8.626;2023-02-18T01:33:38;1.80;;;1.70;;
16173;SDS011;14031;50.158;8.626;2023-02-18T01:36:05;1.93;;;1.83;;
16173;SDS011;14031;50.158;8.626;2023-02-18T01:41:02;1.70;;;1.60;;
16173;SDS011;14031;50.158;8.626;2023-02-18T01:43:33;1.50;;;1.50;;
16173;SDS011;14031;50.158;8.626;2023-02-18T01:46:05;1.20;;;1.20;;
16173;SDS011;14031;50.158;8.626;2023-02-18T01:48:38;1.00;;;1.00;;
16173;SDS011;14031;50.158;8.626;2023-02-18T01:51:08;0.97;;;0.97;;
16173;SDS011;14031;50.158;8.626;2023-02-18T01:53:42;1.53;;;1.17;;
16173;SDS011;14031;50.158;8.626;2023-02-18T01:56:15;1.20;;;1.20;;
16173;SDS011;14031;50.158;8.626;2023-02-18T01:58:47;1.07;;;1.07;;
16173;SDS011;14031;50.158;8.626;2023-02-18T02:01:14;0.90;;;0.90;;
16173;SDS011;14031;50.158;8.626;2023-02-18T02:03:41;2.63;;;1.20;;
16173;SDS011;14031;50.158;8.626;2023-02-18T02:06:10;0.80;;;0.80;;
16173;SDS011;14031;50.158;8.626;2023-02-18T02:08:42;1.00;;;1.00;;
16173;SDS011;14031;50.158;8.626;2023-02-18T02:11:16;0.70;;;0.70;;
16173;SDS011;14031;50.158;8.626;2023-02-18T02:14:05;1.23;;;1.13;;
16173;SDS011;14031;50.158;8.626;2023-02-18T02:16:42;1.30;;;1.30;;
16173;SDS011;14031;50.158;8.626;2023-02-18T02:25:55;0.70;;;0.70;;
16173;SDS011;14031;50.158;8.626;2023-02-18T02:29:03;0.50;;;0.50;;
16173;SDS011;14031;50.158;8.626;2023-02-18T02:31:56;1.93;;;0.70;;
16173;SDS011;14031;50.158;8.626;2023-02-18T02:34:41;0.43;;;0.43;;
16173;SDS011;14031;50.158;8.626;2023-02-18T02:37:17;0.43;;;0.43;;
16173;SDS011;14031;50.158;8.626;2023-02-18T02:39:54;1.90;;;0.50;;
16173;SDS011;14031;50.158;8.626;2023-02-18T02:42:29;0.40;;;0.40;;
16173;SDS011;14031;50.158;8.626;2023-02-18T02:45:06;1.40;;;0.50;;
16173;SDS011;14031;50.158;8.626;2023-02-18T02:47:40;0.80;;;0.63;;
16173;SDS011;14031;50.158;8.626;2023-02-18T02:50:16;0.70;;;0.70;;
16173;SDS011;14031;50.158;8.626;2023-02-18T02:52:51;0.97;;;0.93;;
16173;SDS011;14031;50.158;8.626;2023-02-18T02:55:22;1.80;;;1.00;;
16173;SDS011;14031;50.158;8.626;2023-02-18T02:57:49;1.00;;;1.00;;
16173;SDS011;14031;50.158;8.626;2023-02-18T03:00:18;0.97;;;0.97;;
16173;SDS011;14031;50.158;8.626;2023-02-18T03:02:58;0.90;;;0.90;;
16173;SDS011;14031;50.158;8.626;2023-02-18T03:05:46;0.90;;;0.90;;
16173;SDS011;14031;50.158;8.626;2023-02-18T03:08:24;1.10;;;0.93;;
16173;SDS011;14031;50.158;8.626;2023-02-18T03:11:01;0.90;;;0.90;;
16173;SDS011;14031;50.158;8.626;2023-02-18T03:13:36;0.90;;;0.90;;
16173;SDS011;14031;50.158;8.626;2023-02-18T03:16:15;2.37;;;1.33;;
16173;SDS011;14031;50.158;8.626;2023-02-18T03:18:54;0.80;;;0.80;;
16173;SDS011;14031;50.158;8.626;2023-02-18T03:21:28;1.03;;;0.70;;
16173;SDS011;14031;50.158;8.626;2023-02-18T03:24:02;1.10;;;1.10;;
16173;SDS011;14031;50.158;8.626;2023-02-18T03:26:35;1.40;;;1.03;;
16173;SDS011;14031;50.158;8.626;2023-02-18T03:29:07;0.80;;;0.80;;
16173;SDS011;14031;50.158;8.626;2023-02-18T03:31:35;0.70;;;0.70;;
16173;SDS011;14031;50.158;8.626;2023-02-18T03:34:05;0.80;;;0.80;;
16173;SDS011;14031;50.158;8.626;2023-02-18T03:36:35;0.70;;;0.70;;
16173;SDS011;14031;50.158;8.626;2023-02-18T03:39:03;0.70;;;0.70;;
16173;SDS011;14031;50.158;8.626;2023-02-18T03:41:32;0.60;;;0.60;;
16173;SDS011;14031;50.158;8.626;2023-02-18T03:44:00;1.23;;;0.77;;
16173;SDS011;14031;50.158;8.626;2023-02-18T03:46:30;2.60;;;0.70;;
16173;SDS011;14031;50.158;8.626;2023-02-18T03:48:59;0.60;;;0.60;;
16173;SDS011;14031;50.158;8.626;2023-02-18T03:51:26;0.63;;;0.63;;
16173;SDS011;14031;50.158;8.626;2023-02-18T03:53:54;0.50;;;0.50;;
16173;SDS011;14031;50.158;8.626;2023-02-18T03:56:21;0.67;;;0.67;;
16173;SDS011;14031;50.158;8.626;2023-02-18T03:58:48;0.60;;;0.60;;
16173;SDS011;14031;50.158;8.626;2023-02-18T04:01:17;0.70;;;0.70;;
16173;SDS011;14031;50.158;8.626;2023-02-18T04:03:43;0.53;;;0.53;;
16173;SDS011;14031;50.158;8.626;2023-02-18T04:06:10;0.60;;;0.60;;
16173;SDS011;14031;50.158;8.626;2023-02-18T04:08:37;0.70;;;0.70;;
16173;SDS011;14031;50.158;8.626;2023-02-18T04:11:05;0.70;;;0.70;;
16173;SDS011;14031;50.158;8.626;2023-02-18T04:13:32;0.80;;;0.80;;
16173;SDS011;14031;50.158;8.626;2023-02-18T04:15:59;1.13;;;0.63;;
16173;SDS011;14031;50.158;8.626;2023-02-18T04:18:26;0.50;;;0.50;;
16173;SDS011;14031;50.158;8.626;2023-02-18T04:20:53;0.80;;;0.80;;
16173;SDS011;14031;50.158;8.626;2023-02-18T04:23:19;0.67;;;0.67;;
16173;SDS011;14031;50.158;8.626;2023-02-18T04:25:46;1.00;;;0.90;;
16173;SDS011;14031;50.158;8.626;2023-02-18T04:28:15;2.03;;;0.63;;
16173;SDS011;14031;50.158;8.626;2023-02-18T04:30:42;0.80;;;0.80;;
16173;SDS011;14031;50.158;8.626;2023-02-18T04:33:09;0.60;;;0.60;;
16173;SDS011;14031;50.158;8.626;2023-02-18T04:35:36;0.93;;;0.93;;
16173;SDS011;14031;50.158;8.626;2023-02-18T04:38:04;1.10;;;1.10;;
16173;SDS011;14031;50.158;8.626;2023-02-18T04:40:31;1.00;;;0.90;;
16173;SDS011;14031;50.158;8.626;2023-02-18T04:42:58;0.83;;;0.83;;
16173;SDS011;14031;50.158;8.626;2023-02-18T04:45:26;0.90;;;0.90;;
16173;SDS011;14031;50.158;8.626;2023-02-18T04:47:53;0.70;;;0.70;;
16173;SDS011;14031;50.158;8.626;2023-02-18T04:50:20;0.80;;;0.80;;
16173;SDS011;14031;50.158;8.626;2023-02-18T04:52:48;0.80;;;0.80;;
16173;SDS011;14031;50.158;8.626;2023-02-18T04:55:15;0.60;;;0.60;;
16173;SDS011;14031;50.158;8.626;2023-02-18T04:57:41;0.63;;;0.63;;
16173;SDS011;14031;50.158;8.626;2023-02-18T05:00:09;1.00;;;0.70;;
16173;SDS011;14031;50.158;8.626;2023-02-18T05:02:41;0.90;;;0.90;;
16173;SDS011;14031;50.158;8.626;2023-02-18T05:05:08;0.90;;;0.90;;
16173;SDS011;14031;50.158;8.626;2023-02-18T05:07:35;0.80;;;0.80;;
16173;SDS011;14031;50.158;8.626;2023-02-18T05:10:02;2.27;;;0.70;;
16173;SDS011;14031;50.158;8.626;2023-02-18T05:12:30;1.00;;;1.00;;
16173;SDS011;14031;50.158;8.626;2023-02-18T05:14:56;1.00;;;1.00;;
16173;SDS011;14031;50.158;8.626;2023-02-18T05:17:23;1.17;;;1.17;;
16173;SDS011;14031;50.158;8.626;2023-02-18T05:19:51;1.20;;;1.20;;
16173;SDS011;14031;50.158;8.626;2023-02-18T05:22:18;1.00;;;1.00;;
16173;SDS011;14031;50.158;8.626;2023-02-18T05:24:45;2.37;;;1.37;;
16173;SDS011;14031;50.158;8.626;2023-02-18T05:27:12;2.87;;;1.30;;
16173;SDS011;14031;50.158;8.626;2023-02-18T05:29:39;3.23;;;1.30;;
16173;SDS011;14031;50.158;8.626;2023-02-18T05:32:05;1.57;;;1.57;;
16173;SDS011;14031;50.158;8.626;2023-02-18T05:34:32;1.50;;;1.50;;
16173;SDS011;14031;50.158;8.626;2023-02-18T05:37:00;1.43;;;1.40;;
16173;SDS011;14031;50.158;8.626;2023-02-18T05:39:27;1.60;;;1.50;;
16173;SDS011;14031;50.158;8.626;2023-02-18T05:41:54;1.53;;;1.43;;
16173;SDS011;14031;50.158;8.626;2023-02-18T05:44:20;1.40;;;1.40;;
16173;SDS011;14031;50.158;8.626;2023-02-18T05:46:57;3.17;;;1.20;;
16173;SDS011;14031;50.158;8.626;2023-02-18T05:49:25;0.90;;;0.90;;
16173;SDS011;14031;50.158;8.626;2023-02-18T05:51:52;1.00;;;1.00;;
16173;SDS011;14031;50.158;8.626;2023-02-18T05:54:21;1.10;;;1.10;;
16173;SDS011;14031;50.158;8.626;2023-02-18T05:56:48;0.90;;;0.90;;
16173;SDS011;14031;50.158;8.626;2023-02-18T05:59:15;1.20;;;1.10;;
16173;SDS011;14031;50.158;8.626;2023-02-18T06:01:42;1.00;;;1.00;;
16173;SDS011;14031;50.158;8.626;2023-02-18T06:04:09;1.00;;;1.00;;
16173;SDS011;14031;50.158;8.626;2023-02-18T06:06:39;0.97;;;0.97;;
16173;SDS011;14031;50.158;8.626;2023-02-18T06:09:06;1.03;;;0.97;;
16173;SDS011;14031;50.158;8.626;2023-02-18T06:11:35;0.93;;;0.90;;
16173;SDS011;14031;50.158;8.626;2023-02-18T06:14:02;1.40;;;0.77;;
16173;SDS011;14031;50.158;8.626;2023-02-18T06:16:30;0.67;;;0.67;;
16173;SDS011;14031;50.158;8.626;2023-02-18T06:18:57;0.70;;;0.70;;
16173;SDS011;14031;50.158;8.626;2023-02-18T06:21:24;1.10;;;1.10;;
16173;SDS011;14031;50.158;8.626;2023-02-18T06:23:51;1.33;;;1.27;;
16173;SDS011;14031;50.158;8.626;2023-02-18T06:26:20;1.43;;;1.43;;
16173;SDS011;14031;50.158;8.626;2023-02-18T06:28:49;1.33;;;1.33;;
16173;SDS011;14031;50.158;8.626;2023-02-18T06:31:16;2.70;;;1.57;;
16173;SDS011;14031;50.158;8.626;2023-02-18T06:33:43;1.90;;;1.80;;
16173;SDS011;14031;50.158;8.626;2023-02-18T06:36:10;2.77;;;1.80;;
16173;SDS011;14031;50.158;8.626;2023-02-18T06:38:38;1.63;;;1.57;;
16173;SDS011;14031;50.158;8.626;2023-02-18T06:41:09;1.87;;;1.77;;
16173;SDS011;14031;50.158;8.626;2023-02-18T06:43:37;1.60;;;1.50;;
16173;SDS011;14031;50.158;8.626;2023-02-18T06:46:05;1.50;;;1.40;;
16173;SDS011;14031;50.158;8.626;2023-02-18T06:48:33;1.30;;;1.30;;
16173;SDS011;14031;50.158;8.626;2023-02-18T06:51:00;1.40;;;1.30;;
16173;SDS011;14031;50.158;8.626;2023-02-18T06:53:27;1.37;;;1.10;;
16173;SDS011;14031;50.158;8.626;2023-02-18T06:55:54;1.07;;;1.07;;
16173;SDS011;14031;50.158;8.626;2023-02-18T06:58:21;1.13;;;1.13;;
16173;SDS011;14031;50.158;8.626;2023-02-18T07:00:48;1.00;;;0.90;;
16173;SDS011;14031;50.158;8.626;2023-02-18T07:03:16;1.33;;;1.20;;
16173;SDS011;14031;50.158;8.626;2023-02-18T07:05:43;1.43;;;1.43;;
16173;SDS011;14031;50.158;8.626;2023-02-18T07:08:10;1.40;;;1.40;;
16173;SDS011;14031;50.158;8.626;2023-02-18T07:10:37;1.53;;;1.53;;
16173;SDS011;14031;50.158;8.626;2023-02-18T07:13:04;1.33;;;1.33;;
16173;SDS011;14031;50.158;8.626;2023-02-18T07:15:31;1.80;;;1.70;;
16173;SDS011;14031;50.158;8.626;2023-02-18T07:17:58;1.80;;;1.70;;
16173;SDS011;14031;50.158;8.626;2023-02-18T07:20:26;2.00;;;1.90;;
16173;SDS011;14031;50.158;8.626;2023-02-18T07:22:53;2.80;;;2.03;;
16173;SDS011;14031;50.158;8.626;2023-02-18T07:25:20;2.03;;;1.77;;
16173;SDS011;14031;50.158;8.626;2023-02-18T07:27:47;3.10;;;2.00;;
16173;SDS011;14031;50.158;8.626;2023-02-18T07:30:14;1.83;;;1.73;;
16173;SDS011;14031;50.158;8.626;2023-02-18T07:32:41;1.90;;;1.70;;
16173;SDS011;14031;50.158;8.626;2023-02-18T07:35:09;3.33;;;1.80;;
16173;SDS011;14031;50.158;8.626;2023-02-18T07:37:39;1.80;;;1.70;;
16173;SDS011;14031;50.158;8.626;2023-02-18T07:40:09;1.30;;;1.30;;
16173;SDS011;14031;50.158;8.626;2023-02-18T07:42:37;2.20;;;1.70;;
16173;SDS011;14031;50.158;8.626;2023-02-18T07:45:04;1.80;;;1.70;;
16173;SDS011;14031;50.158;8.626;2023-02-18T07:47:31;1.30;;;1.30;;
16173;SDS011;14031;50.158;8.626;2023-02-18T07:49:58;1.67;;;1.57;;
16173;SDS011;14031;50.158;8.626;2023-02-18T07:52:25;1.53;;;1.40;;
16173;SDS011;14031;50.158;8.626;2023-02-18T07:54:53;2.00;;;1.43;;
16173;SDS011;14031;50.158;8.626;2023-02-18T07:57:20;1.80;;;1.07;;
16173;SDS011;14031;50.158;8.626;2023-02-18T07:59:47;1.37;;;1.37;;
16173;SDS011;14031;50.158;8.626;2023-02-18T08:02:14;0.90;;;0.90;;
16173;SDS011;14031;50.158;8.626;2023-02-18T08:04:43;2.63;;;1.10;;
16173;SDS011;14031;50.158;8.626;2023-02-18T08:07:11;1.17;;;1.17;;
16173;SDS011;14031;50.158;8.626;2023-02-18T08:09:39;1.10;;;1.10;;
16173;SDS011;14031;50.158;8.626;2023-02-18T08:12:07;2.10;;;1.30;;
16173;SDS011;14031;50.158;8.626;2023-02-18T08:14:34;1.40;;;1.40;;
16173;SDS011;14031;50.158;8.626;2023-02-18T08:17:01;2.17;;;1.70;;
16173;SDS011;14031;50.158;8.626;2023-02-18T08:19:28;1.87;;;1.57;;
16173;SDS011;14031;50.158;8.626;2023-02-18T08:21:54;1.63;;;1.60;;
16173;SDS011;14031;50.158;8.626;2023-02-18T08:24:21;1.67;;;1.50;;
16173;SDS011;14031;50.158;8.626;2023-02-18T08:26:48;2.03;;;1.77;;
16173;SDS011;14031;50.158;8.626;2023-02-18T08:29:16;2.10;;;2.00;;
16173;SDS011;14031;50.158;8.626;2023-02-18T08:31:43;1.97;;;1.87;;
16173;SDS011;14031;50.158;8.626;2023-02-18T08:34:10;1.87;;;1.80;;
16173;SDS011;14031;50.158;8.626;2023-02-18T08:36:36;2.10;;;2.00;;
16173;SDS011;14031;50.158;8.626;2023-02-18T08:39:03;2.20;;;1.90;;
16173;SDS011;14031;50.158;8.626;2023-02-18T08:41:30;2.20;;;2.10;;
16173;SDS011;14031;50.158;8.626;2023-02-18T08:43:57;2.10;;;2.00;;
16173;SDS011;14031;50.158;8.626;2023-02-18T08:46:25;2.90;;;2.17;;
16173;SDS011;14031;50.158;8.626;2023-02-18T08:48:52;2.43;;;1.80;;
16173;SDS011;14031;50.158;8.626;2023-02-18T08:51:19;3.37;;;1.50;;
16173;SDS011;14031;50.158;8.626;2023-02-18T08:53:47;1.90;;;1.80;;
16173;SDS011;14031;50.158;8.626;2023-02-18T08:56:14;1.70;;;1.60;;
16173;SDS011;14031;50.158;8.626;2023-02-18T08:58:41;2.47;;;2.00;;
16173;SDS011;14031;50.158;8.626;2023-02-18T09:01:09;2.00;;;1.90;;
16173;SDS011;14031;50.158;8.626;2023-02-18T09:03:38;1.90;;;1.80;;
16173;SDS011;14031;50.158;8.626;2023-02-18T09:06:06;2.43;;;2.20;;
16173;SDS011;14031;50.158;8.626;2023-02-18T09:08:33;2.07;;;1.97;;
16173;SDS011;14031;50.158;8.626;2023-02-18T09:11:00;2.93;;;2.63;;
16173;SDS011;14031;50.158;8.626;2023-02-18T09:13:29;3.30;;;3.10;;
16173;SDS011;14031;50.158;8.626;2023-02-18T09:15:57;2.00;;;1.90;;
16173;SDS011;14031;50.158;8.626;2023-02-18T09:18:25;2.77;;;2.10;;
16173;SDS011;14031;50.158;8.626;2023-02-18T09:20:56;1.70;;;1.60;;
16173;SDS011;14031;50.158;8.626;2023-02-18T09:23:24;2.07;;;1.97;;
16173;SDS011;14031;50.158;8.626;2023-02-18T09:25:52;2.50;;;1.80;;
16173;SDS011;14031;50.158;8.626;2023-02-18T09:28:19;2.00;;;1.90;;
16173;SDS011;14031;50.158;8.626;2023-02-18T09:30:47;6.00;;;1.90;;
16173;SDS011;14031;50.158;8.626;2023-02-18T09:33:14;2.03;;;1.70;;
16173;SDS011;14031;50.158;8.626;2023-02-18T09:35:41;1.83;;;1.50;;
16173;SDS011;14031;50.158;8.626;2023-02-18T09:38:11;1.47;;;1.37;;
16173;SDS011;14031;50.158;8.626;2023-02-18T09:40:41;3.07;;;1.60;;
16173;SDS011;14031;50.158;8.626;2023-02-18T09:43:11;1.63;;;1.53;;
16173;SDS011;14031;50.158;8.626;2023-02-18T09:45:48;1.50;;;1.40;;
16173;SDS011;14031;50.158;8.626;2023-02-18T09:48:16;2.93;;;1.50;;
16173;SDS011;14031;50.158;8.626;2023-02-18T09:50:43;1.10;;;1.10;;
16173;SDS011;14031;50.158;8.626;2023-02-18T09:53:16;2.90;;;1.70;;
16173;SDS011;14031;50.158;8.626;2023-02-18T09:55:44;1.30;;;1.30;;
16173;SDS011;14031;50.158;8.626;2023-02-18T09:58:11;1.27;;;1.17;;
16173;SDS011;14031;50.158;8.626;2023-02-18T10:00:41;2.40;;;1.37;;
16173;SDS011;14031;50.158;8.626;2023-02-18T10:03:12;2.50;;;1.30;;
16173;SDS011;14031;50.158;8.626;2023-02-18T10:05:45;3.23;;;1.30;;
16173;SDS011;14031;50.158;8.626;2023-02-18T10:08:21;1.50;;;1.40;;
16173;SDS011;14031;50.158;8.626;2023-02-18T10:10:50;2.57;;;1.10;;
16173;SDS011;14031;50.158;8.626;2023-02-18T10:13:18;1.30;;;1.20;;
16173;SDS011;14031;50.158;8.626;2023-02-18T10:15:47;4.43;;;1.40;;
16173;SDS011;14031;50.158;8.626;2023-02-18T10:18:18;2.03;;;1.80;;
16173;SDS011;14031;50.158;8.626;2023-02-18T10:20:52;3.53;;;1.10;;
16173;SDS011;14031;50.158;8.626;2023-02-18T10:23:27;0.83;;;0.83;;
16173;SDS011;14031;50.158;8.626;2023-02-18T10:25:58;0.83;;;0.83;;
16173;SDS011;14031;50.158;8.626;2023-02-18T10:28:29;0.80;;;0.80;;
16173;SDS011;14031;50.158;8.626;2023-02-18T10:31:01;1.33;;;1.03;;
16173;SDS011;14031;50.158;8.626;2023-02-18T10:33:32;1.00;;;0.90;;
16173;SDS011;14031;50.158;8.626;2023-02-18T10:36:03;0.70;;;0.70;;
16173;SDS011;14031;50.158;8.626;2023-02-18T10:38:44;0.77;;;0.77;;
16173;SDS011;14031;50.158;8.626;2023-02-18T10:41:28;0.77;;;0.77;;
16173;SDS011;14031;50.158;8.626;2023-02-18T10:44:06;0.53;;;0.50;;
16173;SDS011;14031;50.158;8.626;2023-02-18T10:46:41;0.67;;;0.67;;
16173;SDS011;14031;50.158;8.626;2023-02-18T10:49:19;0.50;;;0.50;;
16173;SDS011;14031;50.158;8.626;2023-02-18T10:52:00;1.70;;;0.50;;
16173;SDS011;14031;50.158;8.626;2023-02-18T10:57:19;0.30;;;0.30;;
16173;SDS011;14031;50.158;8.626;2023-02-18T10:59:58;1.70;;;0.47;;
16173;SDS011;14031;50.158;8.626;2023-02-18T11:02:34;0.40;;;0.40;;
16173;SDS011;14031;50.158;8.626;2023-02-18T11:05:04;0.50;;;0.50;;
16173;SDS011;14031;50.158;8.626;2023-02-18T11:07:41;0.70;;;0.70;;
16173;SDS011;14031;50.158;8.626;2023-02-18T11:10:15;7.80;;;1.10;;
16173;SDS011;14031;50.158;8.626;2023-02-18T11:12:48;1.70;;;1.33;;
16173;SDS011;14031;50.158;8.626;2023-02-18T11:15:17;2.87;;;1.13;;
16173;SDS011;14031;50.158;8.626;2023-02-18T11:17:48;2.80;;;0.63;;
16173;SDS011;14031;50.158;8.626;2023-02-18T11:20:21;0.80;;;0.80;;
16173;SDS011;14031;50.158;8.626;2023-02-18T11:22:56;0.50;;;0.50;;
16173;SDS011;14031;50.158;8.626;2023-02-18T11:25:26;1.90;;;0.50;;
16173;SDS011;14031;50.158;8.626;2023-02-18T11:27:58;1.07;;;0.60;;
16173;SDS011;14031;50.158;8.626;2023-02-18T11:30:30;0.60;;;0.60;;
16173;SDS011;14031;50.158;8.626;2023-02-18T11:32:58;0.60;;;0.60;;
16173;SDS011;14031;50.158;8.626;2023-02-18T11:35:28;0.63;;;0.63;;
16173;SDS011;14031;50.158;8.626;2023-02-18T11:37:58;0.70;;;0.70;;
16173;SDS011;14031;50.158;8.626;2023-02-18T11:40:29;0.80;;;0.80;;
16173;SDS011;14031;50.158;8.626;2023-02-18T11:43:04;0.60;;;0.60;;
16173;SDS011;14031;50.158;8.626;2023-02-18T11:45:32;3.20;;;0.83;;
16173;SDS011;14031;50.158;8.626;2023-02-18T11:48:01;1.20;;;1.10;;
16173;SDS011;14031;50.158;8.626;2023-02-18T11:50:33;0.77;;;0.77;;
16173;SDS011;14031;50.158;8.626;2023-02-18T11:53:01;0.80;;;0.80;;
16173;SDS011;14031;50.158;8.626;2023-02-18T11:55:53;3.33;;;0.90;;
16173;SDS011;14031;50.158;8.626;2023-02-18T11:58:22;1.07;;;0.90;;
16173;SDS011;14031;50.158;8.626;2023-02-18T12:00:49;3.10;;;0.80;;
16173;SDS011;14031;50.158;8.626;2023-02-18T12:03:26;2.27;;;1.03;;
16173;SDS011;14031;50.158;8.626;2023-02-18T12:06:00;0.73;;;0.73;;
16173;SDS011;14031;50.158;8.626;2023-02-18T12:08:30;1.10;;;0.90;;
16173;SDS011;14031;50.158;8.626;2023-02-18T12:11:01;3.37;;;0.67;;
16173;SDS011;14031;50.158;8.626;2023-02-18T12:13:32;0.90;;;0.90;;
16173;SDS011;14031;50.158;8.626;2023-02-18T12:16:05;0.80;;;0.70;;
16173;SDS011;14031;50.158;8.626;2023-02-18T12:18:42;1.73;;;0.60;;
16173;SDS011;14031;50.158;8.626;2023-02-18T12:21:25;2.03;;;0.90;;
16173;SDS011;14031;50.158;8.626;2023-02-18T12:24:14;1.00;;;1.00;;
16173;SDS011;14031;50.158;8.626;2023-02-18T12:26:53;0.90;;;0.90;;
16173;SDS011;14031;50.158;8.626;2023-02-18T12:29:40;1.00;;;1.00;;
16173;SDS011;14031;50.158;8.626;2023-02-18T12:32:18;2.10;;;1.00;;
16173;SDS011;14031;50.158;8.626;2023-02-18T12:35:02;1.23;;;0.70;;
16173;SDS011;14031;50.158;8.626;2023-02-18T12:37:45;0.90;;;0.90;;
16173;SDS011;14031;50.158;8.626;2023-02-18T12:40:32;6.03;;;0.80;;
16173;SDS011;14031;50.158;8.626;2023-02-18T12:43:25;1.20;;;0.90;;
16173;SDS011;14031;50.158;8.626;2023-02-18T12:46:09;0.97;;;0.87;;
16173;SDS011;14031;50.158;8.626;2023-02-18T12:49:04;1.27;;;1.10;;
16173;SDS011;14031;50.158;8.626;2023-02-18T12:51:59;1.13;;;1.03;;
16173;SDS011;14031;50.158;8.626;2023-02-18T12:54:35;1.10;;;1.00;;
16173;SDS011;14031;50.158;8.626;2023-02-18T12:57:22;2.80;;;0.90;;
16173;SDS011;14031;50.158;8.626;2023-02-18T13:03:10;2.03;;;1.13;;
16173;SDS011;14031;50.158;8.626;2023-02-18T13:06:18;1.87;;;1.37;;
16173;SDS011;14031;50.158;8.626;2023-02-18T13:08:58;1.10;;;1.00;;
16173;SDS011;14031;50.158;8.626;2023-02-18T13:11:35;1.40;;;1.30;;
16173;SDS011;14031;50.158;8.626;2023-02-18T13:14:08;1.10;;;1.10;;
16173;SDS011;14031;50.158;8.626;2023-02-18T13:16:38;1.30;;;1.20;;
16173;SDS011;14031;50.158;8.626;2023-02-18T13:19:13;1.63;;;1.40;;
16173;SDS011;14031;50.158;8.626;2023-02-18T13:21:43;4.53;;;1.07;;
16173;SDS011;14031;50.158;8.626;2023-02-18T13:24:12;1.43;;;1.20;;
16173;SDS011;14031;50.158;8.626;2023-02-18T13:26:52;1.27;;;1.17;;
16173;SDS011;14031;50.158;8.626;2023-02-18T13:29:25;1.70;;;1.20;;
16173;SDS011;14031;50.158;8.626;2023-02-18T13:32:03;1.23;;;1.00;;
16173;SDS011;14031;50.158;8.626;2023-02-18T13:34:40;1.37;;;1.27;;
16173;SDS011;14031;50.158;8.626;2023-02-18T13:37:14;1.10;;;1.10;;
16173;SDS011;14031;50.158;8.626;2023-02-18T13:39:46;1.00;;;0.97;;
16173;SDS011;14031;50.158;8.626;2023-02-18T13:42:23;1.57;;;1.20;;
16173;SDS011;14031;50.158;8.626;2023-02-18T13:45:05;1.27;;;1.20;;
16173;SDS011;14031;50.158;8.626;2023-02-18T13:47:50;1.07;;;1.03;;
16173;SDS011;14031;50.158;8.626;2023-02-18T13:50:26;1.60;;;1.50;;
16173;SDS011;14031;50.158;8.626;2023-02-18T13:53:12;1.10;;;1.10;;
16173;SDS011;14031;50.158;8.626;2023-02-18T13:55:50;3.47;;;1.13;;
16173;SDS011;14031;50.158;8.626;2023-02-18T13:58:30;1.20;;;1.10;;
16173;SDS011;14031;50.158;8.626;2023-02-18T14:01:02;1.70;;;1.17;;
16173;SDS011;14031;50.158;8.626;2023-02-18T14:03:33;1.30;;;1.00;;
16173;SDS011;14031;50.158;8.626;2023-02-18T14:06:15;1.07;;;1.00;;
16173;SDS011;14031;50.158;8.626;2023-02-18T14:08:43;1.03;;;1.03;;
16173;SDS011;14031;50.158;8.626;2023-02-18T14:11:24;1.90;;;1.37;;
16173;SDS011;14031;50.158;8.626;2023-02-18T14:26:17;1.57;;;1.47;;
16173;SDS011;14031;50.158;8.626;2023-02-18T14:28:51;2.60;;;1.30;;
16173;SDS011;14031;50.158;8.626;2023-02-18T14:31:24;2.63;;;2.17;;
16173;SDS011;14031;50.158;8.626;2023-02-18T14:34:01;1.73;;;1.47;;
16173;SDS011;14031;50.158;8.626;2023-02-18T14:36:48;2.93;;;1.53;;
16173;SDS011;14031;50.158;8.626;2023-02-18T14:39:28;2.57;;;1.50;;
16173;SDS011;14031;50.158;8.626;2023-02-18T14:42:09;1.73;;;1.60;;
16173;SDS011;14031;50.158;8.626;2023-02-18T14:44:50;3.23;;;1.40;;
16173;SDS011;14031;50.158;8.626;2023-02-18T14:47:33;2.57;;;1.47;;
16173;SDS011;14031;50.158;8.626;2023-02-18T14:50:10;1.93;;;1.83;;
16173;SDS011;14031;50.158;8.626;2023-02-18T14:52:42;1.73;;;1.40;;
16173;SDS011;14031;50.158;8.626;2023-02-18T14:55:15;1.97;;;1.87;;
16173;SDS011;14031;50.158;8.626;2023-02-18T14:57:47;2.50;;;1.37;;
16173;SDS011;14031;50.158;8.626;2023-02-18T15:00:16;1.30;;;1.30;;
16173;SDS011;14031;50.158;8.626;2023-02-18T15:02:47;1.10;;;1.10;;
16173;SDS011;14031;50.158;8.626;2023-02-18T15:05:15;1.00;;;1.00;;
16173;SDS011;14031;50.158;8.626;2023-02-18T15:10:36;1.07;;;1.07;;
16173;SDS011;14031;50.158;8.626;2023-02-18T15:13:07;0.83;;;0.83;;
16173;SDS011;14031;50.158;8.626;2023-02-18T15:15:39;1.03;;;0.90;;
16173;SDS011;14031;50.158;8.626;2023-02-18T15:18:10;1.77;;;1.67;;
16173;SDS011;14031;50.158;8.626;2023-02-18T15:20:46;2.57;;;2.33;;
16173;SDS011;14031;50.158;8.626;2023-02-18T15:23:15;3.10;;;1.80;;
16173;SDS011;14031;50.158;8.626;2023-02-18T15:25:43;1.10;;;1.10;;
16173;SDS011;14031;50.158;8.626;2023-02-18T15:28:19;1.40;;;1.30;;
16173;SDS011;14031;50.158;8.626;2023-02-18T15:30:47;1.03;;;1.03;;
16173;SDS011;14031;50.158;8.626;2023-02-18T15:33:14;4.50;;;1.27;;
16173;SDS011;14031;50.158;8.626;2023-02-18T15:35:43;6.73;;;6.07;;
16173;SDS011;14031;50.158;8.626;2023-02-18T15:38:12;1.10;;;1.00;;
16173;SDS011;14031;50.158;8.626;2023-02-18T15:40:42;2.20;;;1.20;;